sensor_id;sensor_type;location;lat;lon;timestamp;pressure;altitude;pressure_sealevel;temperature;humidity
5954;BME280;3002;42.642;24.812;2023-05-07T00:02:20;96758.09;;;17.81;89.93
5954;BME280;3002;42.642;24.812;2023-05-07T00:04:46;96763.34;;;17.69;91.68
5954;BME280;3002;42.642;24.812;2023-05-07T00:07:11;96776.88;;;17.86;90.47
5954;BME280;3002;42.642;24.812;2023-05-07T00:09:37;96760.69;;;17.60;92.47
5954;BME280;3002;42.642;24.812;2023-05-07T00:12:02;96774.91;;;17.57;93.43
5954;BME280;3002;42.642;24.812;2023-05-07T00:14:33;96779.63;;;17.69;92.99
5954;BME280;3002;42.642;24.812;2023-05-07T00:16:59;96739.38;;;17.33;94.12
5954;BME280;3002;42.642;24.812;2023-05-07T00:19:24;96766.94;;;17.52;92.67
5954;BME280;3002;42.642;24.812;2023-05-07T00:21:50;96725.91;;;17.16;92.86
5954;BME280;3002;42.642;24.812;2023-05-07T00:24:15;96760.47;;;17.19;94.89
5954;BME280;3002;42.642;24.812;2023-05-07T00:26:41;96743.00;;;16.90;97.56
5954;BME280;3002;42.642;24.812;2023-05-07T00:29:07;96756.22;;;16.92;98.91
5954;BME280;3002;42.642;24.812;2023-05-07T00:31:32;96758.13;;;16.91;97.19
5954;BME280;3002;42.642;24.812;2023-05-07T00:33:58;96755.41;;;16.39;100.00
5954;BME280;3002;42.642;24.812;2023-05-07T00:36:23;96758.44;;;16.46;99.64
5954;BME280;3002;42.642;24.812;2023-05-07T00:38:49;96718.75;;;16.16;98.33
5954;BME280;3002;42.642;24.812;2023-05-07T00:41:15;96724.00;;;16.12;100.00
5954;BME280;3002;42.642;24.812;2023-05-07T00:43:40;96739.31;;;16.34;99.64
5954;BME280;3002;42.642;24.812;2023-05-07T00:46:06;96738.38;;;16.65;96.10
5954;BME280;3002;42.642;24.812;2023-05-07T00:48:32;96753.19;;;16.58;98.47
5954;BME280;3002;42.642;24.812;2023-05-07T00:50:57;96732.31;;;16.50;97.16
5954;BME280;3002;42.642;24.812;2023-05-07T00:53:23;96748.41;;;16.73;95.69
5954;BME280;3002;42.642;24.812;2023-05-07T00:55:48;96731.84;;;16.57;96.87
5954;BME280;3002;42.642;24.812;2023-05-07T00:58:14;96743.63;;;16.70;98.29
5954;BME280;3002;42.642;24.812;2023-05-07T01:00:40;96720.84;;;16.53;100.00
5954;BME280;3002;42.642;24.812;2023-05-07T01:03:05;96735.66;;;16.65;100.00
5954;BME280;3002;42.642;24.812;2023-05-07T01:05:31;96746.81;;;16.63;100.00
5954;BME280;3002;42.642;24.812;2023-05-07T01:07:57;96751.47;;;16.80;100.00
5954;BME280;3002;42.642;24.812;2023-05-07T01:10:24;96737.09;;;16.53;100.00
5954;BME280;3002;42.642;24.812;2023-05-07T01:12:50;96744.44;;;16.44;100.00
5954;BME280;3002;42.642;24.812;2023-05-07T01:15:15;96733.59;;;16.27;100.00
5954;BME280;3002;42.642;24.812;2023-05-07T01:17:42;96765.94;;;16.49;100.00
5954;BME280;3002;42.642;24.812;2023-05-07T01:20:08;96755.22;;;16.27;100.00
5954;BME280;3002;42.642;24.812;2023-05-07T01:22:37;96760.78;;;16.22;100.00
5954;BME280;3002;42.642;24.812;2023-05-07T01:25:06;96757.00;;;16.40;100.00
5954;BME280;3002;42.642;24.812;2023-05-07T01:27:32;96721.06;;;15.83;100.00
5954;BME280;3002;42.642;24.812;2023-05-07T01:30:03;96736.53;;;15.99;100.00
5954;BME280;3002;42.642;24.812;2023-05-07T01:32:35;96732.72;;;16.00;100.00
5954;BME280;3002;42.642;24.812;2023-05-07T01:35:02;96747.22;;;15.96;100.00
5954;BME280;3002;42.642;24.812;2023-05-07T01:37:30;96749.72;;;15.52;100.00
5954;BME280;3002;42.642;24.812;2023-05-07T01:39:56;96752.84;;;15.37;100.00
5954;BME280;3002;42.642;24.812;2023-05-07T01:42:22;96746.94;;;15.35;100.00
5954;BME280;3002;42.642;24.812;2023-05-07T01:44:48;96736.06;;;15.18;100.00
5954;BME280;3002;42.642;24.812;2023-05-07T01:47:14;96743.06;;;15.19;100.00
5954;BME280;3002;42.642;24.812;2023-05-07T01:49:40;96750.84;;;15.51;100.00
5954;BME280;3002;42.642;24.812;2023-05-07T01:52:07;96736.94;;;15.67;100.00
5954;BME280;3002;42.642;24.812;2023-05-07T01:54:32;96761.44;;;15.70;100.00
5954;BME280;3002;42.642;24.812;2023-05-07T01:56:58;96755.72;;;15.41;100.00
5954;BME280;3002;42.642;24.812;2023-05-07T01:59:23;96757.13;;;14.85;100.00
5954;BME280;3002;42.642;24.812;2023-05-07T02:01:49;96748.91;;;15.12;100.00
5954;BME280;3002;42.642;24.812;2023-05-07T02:04:14;96751.97;;;15.19;100.00
5954;BME280;3002;42.642;24.812;2023-05-07T02:06:40;96739.81;;;15.39;100.00
5954;BME280;3002;42.642;24.812;2023-05-07T02:09:05;96728.69;;;15.41;100.00
5954;BME280;3002;42.642;24.812;2023-05-07T02:11:31;96724.84;;;15.33;100.00
5954;BME280;3002;42.642;24.812;2023-05-07T02:13:56;96725.28;;;15.26;100.00
5954;BME280;3002;42.642;24.812;2023-05-07T02:16:22;96718.16;;;14.99;100.00
5954;BME280;3002;42.642;24.812;2023-05-07T02:18:50;96708.28;;;14.95;100.00
5954;BME280;3002;42.642;24.812;2023-05-07T02:21:15;96709.09;;;14.95;100.00
5954;BME280;3002;42.642;24.812;2023-05-07T02:23:41;96710.56;;;15.10;100.00
5954;BME280;3002;42.642;24.812;2023-05-07T02:26:06;96717.56;;;15.11;100.00
5954;BME280;3002;42.642;24.812;2023-05-07T02:28:32;96700.50;;;14.93;100.00
5954;BME280;3002;42.642;24.812;2023-05-07T02:30:57;96703.06;;;15.30;100.00
5954;BME280;3002;42.642;24.812;2023-05-07T02:33:26;96692.97;;;15.13;100.00
5954;BME280;3002;42.642;24.812;2023-05-07T02:35:51;96702.53;;;15.19;100.00
5954;BME280;3002;42.642;24.812;2023-05-07T02:38:17;96696.97;;;14.93;100.00
5954;BME280;3002;42.642;24.812;2023-05-07T02:40:43;96707.28;;;14.91;100.00
5954;BME280;3002;42.642;24.812;2023-05-07T02:43:09;96701.97;;;14.55;100.00
5954;BME280;3002;42.642;24.812;2023-05-07T02:45:34;96698.75;;;14.30;100.00
5954;BME280;3002;42.642;24.812;2023-05-07T02:48:01;96703.13;;;14.26;100.00
5954;BME280;3002;42.642;24.812;2023-05-07T02:50:27;96703.22;;;14.35;100.00
5954;BME280;3002;42.642;24.812;2023-05-07T02:52:52;96678.97;;;13.99;100.00
5954;BME280;3002;42.642;24.812;2023-05-07T02:55:18;96673.56;;;13.99;100.00
5954;BME280;3002;42.642;24.812;2023-05-07T02:57:43;96702.19;;;14.44;100.00
5954;BME280;3002;42.642;24.812;2023-05-07T03:00:14;96704.25;;;14.61;100.00
5954;BME280;3002;42.642;24.812;2023-05-07T03:02:40;96698.53;;;14.63;100.00
5954;BME280;3002;42.642;24.812;2023-05-07T03:05:06;96704.25;;;14.61;100.00
5954;BME280;3002;42.642;24.812;2023-05-07T03:07:31;96682.13;;;14.37;100.00
5954;BME280;3002;42.642;24.812;2023-05-07T03:09:57;96695.50;;;14.42;100.00
5954;BME280;3002;42.642;24.812;2023-05-07T03:12:22;96696.16;;;14.25;100.00
5954;BME280;3002;42.642;24.812;2023-05-07T03:14:48;96714.38;;;14.42;100.00
5954;BME280;3002;42.642;24.812;2023-05-07T03:17:16;96699.47;;;14.44;100.00
5954;BME280;3002;42.642;24.812;2023-05-07T03:19:42;96697.06;;;14.20;100.00
5954;BME280;3002;42.642;24.812;2023-05-07T03:22:08;96685.91;;;14.13;100.00
5954;BME280;3002;42.642;24.812;2023-05-07T03:24:34;96718.63;;;14.34;100.00
5954;BME280;3002;42.642;24.812;2023-05-07T03:26:59;96704.19;;;14.53;100.00
5954;BME280;3002;42.642;24.812;2023-05-07T03:29:26;96717.56;;;14.22;100.00
5954;BME280;3002;42.642;24.812;2023-05-07T03:31:52;96691.22;;;14.05;100.00
5954;BME280;3002;42.642;24.812;2023-05-07T03:34:17;96713.03;;;14.31;100.00
5954;BME280;3002;42.642;24.812;2023-05-07T03:36:48;96702.13;;;14.36;100.00
5954;BME280;3002;42.642;24.812;2023-05-07T03:39:13;96710.31;;;14.31;100.00
5954;BME280;3002;42.642;24.812;2023-05-07T03:41:39;96717.41;;;14.27;100.00
5954;BME280;3002;42.642;24.812;2023-05-07T03:44:04;96711.06;;;14.45;100.00
5954;BME280;3002;42.642;24.812;2023-05-07T03:46:30;96716.75;;;14.57;100.00
5954;BME280;3002;42.642;24.812;2023-05-07T03:48:56;96709.00;;;14.42;100.00
5954;BME280;3002;42.642;24.812;2023-05-07T03:51:21;96688.28;;;14.51;100.00
5954;BME280;3002;42.642;24.812;2023-05-07T03:53:46;96709.47;;;14.58;100.00
5954;BME280;3002;42.642;24.812;2023-05-07T03:56:12;96696.25;;;14.20;100.00
5954;BME280;3002;42.642;24.812;2023-05-07T03:58:38;96687.31;;;14.33;100.00
5954;BME280;3002;42.642;24.812;2023-05-07T04:01:03;96710.94;;;14.64;100.00
5954;BME280;3002;42.642;24.812;2023-05-07T04:03:29;96698.28;;;14.51;100.00
5954;BME280;3002;42.642;24.812;2023-05-07T04:05:54;96669.19;;;14.25;100.00
5954;BME280;3002;42.642;24.812;2023-05-07T04:08:20;96681.13;;;14.33;100.00
5954;BME280;3002;42.642;24.812;2023-05-07T04:10:45;96695.69;;;14.45;100.00
5954;BME280;3002;42.642;24.812;2023-05-07T04:13:11;96691.94;;;14.47;100.00
5954;BME280;3002;42.642;24.812;2023-05-07T04:15:36;96692.59;;;14.52;100.00
5954;BME280;3002;42.642;24.812;2023-05-07T04:18:02;96713.13;;;15.07;100.00
5954;BME280;3002;42.642;24.812;2023-05-07T04:20:27;96728.88;;;15.44;99.36
5954;BME280;3002;42.642;24.812;2023-05-07T04:22:53;96738.66;;;15.63;97.64
5954;BME280;3002;42.642;24.812;2023-05-07T04:25:18;96726.13;;;15.67;95.96
5954;BME280;3002;42.642;24.812;2023-05-07T04:27:44;96744.13;;;15.80;96.91
5954;BME280;3002;42.642;24.812;2023-05-07T04:30:10;96723.22;;;16.20;92.91
5954;BME280;3002;42.642;24.812;2023-05-07T04:32:35;96718.94;;;16.19;92.42
5954;BME280;3002;42.642;24.812;2023-05-07T04:35:02;96724.19;;;16.50;93.05
5954;BME280;3002;42.642;24.812;2023-05-07T04:37:28;96711.94;;;16.70;90.93
5954;BME280;3002;42.642;24.812;2023-05-07T04:39:53;96705.03;;;17.07;85.96
5954;BME280;3002;42.642;24.812;2023-05-07T04:42:19;96740.44;;;17.58;85.55
5954;BME280;3002;42.642;24.812;2023-05-07T04:44:45;96740.38;;;18.55;77.34
5954;BME280;3002;42.642;24.812;2023-05-07T04:47:11;96726.50;;;18.06;83.95
5954;BME280;3002;42.642;24.812;2023-05-07T04:49:38;96748.19;;;17.68;89.97
5954;BME280;3002;42.642;24.812;2023-05-07T04:52:04;96729.59;;;18.17;85.93
5954;BME280;3002;42.642;24.812;2023-05-07T04:54:30;96738.75;;;18.33;83.21
5954;BME280;3002;42.642;24.812;2023-05-07T04:56:55;96738.50;;;18.89;80.39
5954;BME280;3002;42.642;24.812;2023-05-07T04:59:21;96728.75;;;19.09;78.13
5954;BME280;3002;42.642;24.812;2023-05-07T05:01:47;96759.16;;;19.68;74.53
5954;BME280;3002;42.642;24.812;2023-05-07T05:04:13;96702.94;;;18.82;76.92
5954;BME280;3002;42.642;24.812;2023-05-07T05:06:39;96728.56;;;18.51;83.30
5954;BME280;3002;42.642;24.812;2023-05-07T05:09:05;96727.38;;;18.61;82.18
5954;BME280;3002;42.642;24.812;2023-05-07T05:11:31;96728.84;;;18.58;80.76
5954;BME280;3002;42.642;24.812;2023-05-07T05:13:59;96731.97;;;19.35;75.83
5954;BME280;3002;42.642;24.812;2023-05-07T05:16:25;96752.13;;;19.67;74.52
5954;BME280;3002;42.642;24.812;2023-05-07T05:18:51;96748.59;;;19.67;74.80
5954;BME280;3002;42.642;24.812;2023-05-07T05:21:17;96746.00;;;18.50;83.30
5954;BME280;3002;42.642;24.812;2023-05-07T05:23:43;96733.94;;;18.60;82.05
5954;BME280;3002;42.642;24.812;2023-05-07T05:26:08;96731.91;;;19.56;74.06
5954;BME280;3002;42.642;24.812;2023-05-07T05:28:34;96737.16;;;20.10;67.95
5954;BME280;3002;42.642;24.812;2023-05-07T05:30:59;96743.00;;;20.89;64.96
5954;BME280;3002;42.642;24.812;2023-05-07T05:33:25;96724.84;;;21.09;63.96
5954;BME280;3002;42.642;24.812;2023-05-07T05:35:50;96712.28;;;21.20;63.25
5954;BME280;3002;42.642;24.812;2023-05-07T05:38:16;96715.50;;;22.01;59.61
5954;BME280;3002;42.642;24.812;2023-05-07T05:40:41;96732.38;;;22.58;59.09
5954;BME280;3002;42.642;24.812;2023-05-07T05:43:07;96714.31;;;22.53;56.60
5954;BME280;3002;42.642;24.812;2023-05-07T05:45:33;96742.78;;;22.33;57.57
5954;BME280;3002;42.642;24.812;2023-05-07T05:47:59;96730.59;;;22.30;57.14
5954;BME280;3002;42.642;24.812;2023-05-07T05:50:24;96749.16;;;21.89;59.14
5954;BME280;3002;42.642;24.812;2023-05-07T05:52:50;96740.78;;;21.82;58.35
5954;BME280;3002;42.642;24.812;2023-05-07T05:55:16;96736.94;;;22.89;55.15
5954;BME280;3002;42.642;24.812;2023-05-07T05:57:41;96732.50;;;21.79;56.64
5954;BME280;3002;42.642;24.812;2023-05-07T06:00:08;96735.59;;;22.44;55.91
5954;BME280;3002;42.642;24.812;2023-05-07T06:02:36;96761.31;;;22.43;56.74
5954;BME280;3002;42.642;24.812;2023-05-07T06:05:01;96746.31;;;22.53;55.72
5954;BME280;3002;42.642;24.812;2023-05-07T06:07:26;96740.31;;;23.02;54.51
5954;BME280;3002;42.642;24.812;2023-05-07T06:09:54;96776.09;;;23.55;53.89
5954;BME280;3002;42.642;24.812;2023-05-07T06:12:21;96752.63;;;24.49;51.41
5954;BME280;3002;42.642;24.812;2023-05-07T06:14:46;96755.44;;;23.57;52.41
5954;BME280;3002;42.642;24.812;2023-05-07T06:17:11;96753.72;;;23.49;53.24
5954;BME280;3002;42.642;24.812;2023-05-07T06:19:37;96754.28;;;23.16;53.54
5954;BME280;3002;42.642;24.812;2023-05-07T06:22:02;96767.00;;;24.69;49.82
5954;BME280;3002;42.642;24.812;2023-05-07T06:24:28;96752.84;;;22.13;54.05
5954;BME280;3002;42.642;24.812;2023-05-07T06:26:54;96755.66;;;23.48;53.01
5954;BME280;3002;42.642;24.812;2023-05-07T06:29:20;96750.97;;;23.49;51.95
5954;BME280;3002;42.642;24.812;2023-05-07T06:31:45;96755.22;;;24.38;49.91
5954;BME280;3002;42.642;24.812;2023-05-07T06:34:11;96754.28;;;25.54;47.44
5954;BME280;3002;42.642;24.812;2023-05-07T06:36:40;96741.38;;;23.59;51.52
5954;BME280;3002;42.642;24.812;2023-05-07T06:39:06;96760.38;;;22.35;54.76
5954;BME280;3002;42.642;24.812;2023-05-07T06:41:31;96772.22;;;24.24;51.71
5954;BME280;3002;42.642;24.812;2023-05-07T06:43:57;96757.81;;;24.84;49.52
5954;BME280;3002;42.642;24.812;2023-05-07T06:46:23;96767.06;;;25.73;48.43
5954;BME280;3002;42.642;24.812;2023-05-07T06:48:48;96774.22;;;23.59;53.15
5954;BME280;3002;42.642;24.812;2023-05-07T06:51:13;96762.97;;;24.59;52.81
5954;BME280;3002;42.642;24.812;2023-05-07T06:53:39;96759.50;;;25.67;48.29
5954;BME280;3002;42.642;24.812;2023-05-07T06:56:05;96720.44;;;23.93;50.48
5954;BME280;3002;42.642;24.812;2023-05-07T06:58:31;96754.19;;;25.81;48.03
5954;BME280;3002;42.642;24.812;2023-05-07T07:00:56;96759.13;;;25.27;49.54
5954;BME280;3002;42.642;24.812;2023-05-07T07:03:22;96751.31;;;23.90;51.59
5954;BME280;3002;42.642;24.812;2023-05-07T07:05:51;96741.41;;;24.91;49.12
5954;BME280;3002;42.642;24.812;2023-05-07T07:08:17;96775.38;;;26.94;45.95
5954;BME280;3002;42.642;24.812;2023-05-07T07:10:43;96730.50;;;25.73;45.99
5954;BME280;3002;42.642;24.812;2023-05-07T07:13:08;96760.22;;;27.46;42.99
5954;BME280;3002;42.642;24.812;2023-05-07T07:18:55;96759.22;;;26.23;45.34
5954;BME280;3002;42.642;24.812;2023-05-07T07:21:21;96749.69;;;26.68;44.33
5954;BME280;3002;42.642;24.812;2023-05-07T07:23:46;96747.94;;;27.15;43.40
5954;BME280;3002;42.642;24.812;2023-05-07T07:26:12;96765.28;;;27.27;43.47
5954;BME280;3002;42.642;24.812;2023-05-07T07:28:45;96760.72;;;27.88;42.33
5954;BME280;3002;42.642;24.812;2023-05-07T07:31:21;96734.66;;;25.97;45.83
5954;BME280;3002;42.642;24.812;2023-05-07T07:33:46;96756.09;;;26.90;43.82
5954;BME280;3002;42.642;24.812;2023-05-07T07:36:12;96761.34;;;25.93;45.49
5954;BME280;3002;42.642;24.812;2023-05-07T07:38:37;96759.72;;;25.88;46.18
5954;BME280;3002;42.642;24.812;2023-05-07T07:41:03;96745.78;;;26.14;45.16
5954;BME280;3002;42.642;24.812;2023-05-07T07:43:29;96771.09;;;27.04;43.62
5954;BME280;3002;42.642;24.812;2023-05-07T07:45:54;96755.22;;;27.77;42.63
5954;BME280;3002;42.642;24.812;2023-05-07T07:48:20;96765.06;;;28.39;40.17
5954;BME280;3002;42.642;24.812;2023-05-07T07:50:48;96759.91;;;28.12;41.26
5954;BME280;3002;42.642;24.812;2023-05-07T07:53:14;96761.81;;;28.76;39.81
5954;BME280;3002;42.642;24.812;2023-05-07T07:55:40;96746.88;;;27.63;40.31
5954;BME280;3002;42.642;24.812;2023-05-07T07:58:05;96757.47;;;25.19;44.33
5954;BME280;3002;42.642;24.812;2023-05-07T08:00:31;96755.50;;;25.98;42.83
5954;BME280;3002;42.642;24.812;2023-05-07T08:02:56;96729.72;;;25.69;41.89
5954;BME280;3002;42.642;24.812;2023-05-07T08:05:22;96759.16;;;28.01;38.87
5954;BME280;3002;42.642;24.812;2023-05-07T08:07:48;96749.69;;;28.02;38.02
5954;BME280;3002;42.642;24.812;2023-05-07T08:10:17;96757.47;;;28.82;37.16
5954;BME280;3002;42.642;24.812;2023-05-07T08:12:47;96762.13;;;27.14;39.37
5954;BME280;3002;42.642;24.812;2023-05-07T08:15:13;96713.44;;;27.82;37.72
5954;BME280;3002;42.642;24.812;2023-05-07T08:17:38;96742.59;;;27.97;38.63
5954;BME280;3002;42.642;24.812;2023-05-07T08:20:04;96743.22;;;28.91;37.83
5954;BME280;3002;42.642;24.812;2023-05-07T08:22:30;96752.44;;;28.16;38.59
5954;BME280;3002;42.642;24.812;2023-05-07T08:24:56;96752.06;;;30.04;35.80
5954;BME280;3002;42.642;24.812;2023-05-07T08:27:21;96721.34;;;29.95;35.08
5954;BME280;3002;42.642;24.812;2023-05-07T08:29:47;96752.81;;;28.47;37.52
5954;BME280;3002;42.642;24.812;2023-05-07T08:32:17;96711.13;;;29.25;37.66
5954;BME280;3002;42.642;24.812;2023-05-07T08:34:42;96755.84;;;27.28;40.19
5954;BME280;3002;42.642;24.812;2023-05-07T08:37:08;96735.50;;;28.21;39.04
5954;BME280;3002;42.642;24.812;2023-05-07T08:39:33;96745.22;;;28.94;38.54
5954;BME280;3002;42.642;24.812;2023-05-07T08:42:01;96755.50;;;29.67;38.05
5954;BME280;3002;42.642;24.812;2023-05-07T08:44:33;96746.63;;;29.30;38.24
5954;BME280;3002;42.642;24.812;2023-05-07T08:47:00;96729.22;;;28.14;40.08
5954;BME280;3002;42.642;24.812;2023-05-07T08:49:27;96751.25;;;28.17;39.09
5954;BME280;3002;42.642;24.812;2023-05-07T08:51:52;96745.25;;;27.33;40.96
5954;BME280;3002;42.642;24.812;2023-05-07T08:54:18;96747.16;;;27.08;42.17
5954;BME280;3002;42.642;24.812;2023-05-07T08:56:51;96723.59;;;28.74;39.37
5954;BME280;3002;42.642;24.812;2023-05-07T08:59:16;96716.41;;;29.68;36.33
5954;BME280;3002;42.642;24.812;2023-05-07T09:01:42;96733.22;;;29.92;36.69
5954;BME280;3002;42.642;24.812;2023-05-07T09:04:07;96703.56;;;29.92;36.22
5954;BME280;3002;42.642;24.812;2023-05-07T09:06:34;96734.38;;;30.80;35.49
5954;BME280;3002;42.642;24.812;2023-05-07T09:09:00;96737.59;;;30.75;35.88
5954;BME280;3002;42.642;24.812;2023-05-07T09:11:26;96727.28;;;30.38;35.61
5954;BME280;3002;42.642;24.812;2023-05-07T09:13:56;96732.53;;;29.11;37.50
5954;BME280;3002;42.642;24.812;2023-05-07T09:16:23;96706.69;;;29.42;37.99
5954;BME280;3002;42.642;24.812;2023-05-07T09:18:53;96719.72;;;28.40;38.19
5954;BME280;3002;42.642;24.812;2023-05-07T09:21:19;96719.53;;;30.22;36.24
5954;BME280;3002;42.642;24.812;2023-05-07T09:23:48;96722.72;;;28.92;38.36
5954;BME280;3002;42.642;24.812;2023-05-07T09:26:14;96706.47;;;26.69;42.51
5954;BME280;3002;42.642;24.812;2023-05-07T09:28:40;96695.41;;;24.77;45.20
5954;BME280;3002;42.642;24.812;2023-05-07T09:31:07;96727.09;;;26.38;43.69
5954;BME280;3002;42.642;24.812;2023-05-07T09:34:04;96716.56;;;28.41;39.41
5954;BME280;3002;42.642;24.812;2023-05-07T09:36:31;96703.22;;;28.08;40.00
5954;BME280;3002;42.642;24.812;2023-05-07T09:38:59;96724.38;;;27.18;42.03
5954;BME280;3002;42.642;24.812;2023-05-07T09:41:25;96704.78;;;28.34;39.00
5954;BME280;3002;42.642;24.812;2023-05-07T09:43:55;96712.66;;;27.67;39.61
5954;BME280;3002;42.642;24.812;2023-05-07T09:46:25;96698.47;;;25.84;43.99
5954;BME280;3002;42.642;24.812;2023-05-07T09:49:22;96714.50;;;25.78;41.90
5954;BME280;3002;42.642;24.812;2023-05-07T09:51:53;96721.09;;;25.70;42.41
5954;BME280;3002;42.642;24.812;2023-05-07T09:54:19;96701.13;;;27.08;39.42
5954;BME280;3002;42.642;24.812;2023-05-07T09:56:45;96689.38;;;28.29;37.24
5954;BME280;3002;42.642;24.812;2023-05-07T09:59:14;96701.69;;;29.82;36.84
5954;BME280;3002;42.642;24.812;2023-05-07T10:01:42;96689.53;;;29.06;37.10
5954;BME280;3002;42.642;24.812;2023-05-07T10:04:08;96693.88;;;26.68;41.00
5954;BME280;3002;42.642;24.812;2023-05-07T10:06:34;96689.41;;;25.02;44.53
5954;BME280;3002;42.642;24.812;2023-05-07T10:09:00;96680.03;;;26.47;41.12
5954;BME280;3002;42.642;24.812;2023-05-07T10:11:26;96683.47;;;26.33;41.37
5954;BME280;3002;42.642;24.812;2023-05-07T10:13:52;96676.47;;;24.65;44.66
5954;BME280;3002;42.642;24.812;2023-05-07T10:16:19;96680.47;;;25.46;43.10
5954;BME280;3002;42.642;24.812;2023-05-07T10:18:46;96685.75;;;26.17;41.51
5954;BME280;3002;42.642;24.812;2023-05-07T10:21:16;96684.81;;;25.95;42.28
5954;BME280;3002;42.642;24.812;2023-05-07T10:23:45;96673.19;;;26.15;41.30
5954;BME280;3002;42.642;24.812;2023-05-07T10:26:11;96677.16;;;27.16;39.69
5954;BME280;3002;42.642;24.812;2023-05-07T10:28:39;96678.38;;;28.11;39.01
5954;BME280;3002;42.642;24.812;2023-05-07T10:34:26;96670.06;;;30.65;33.90
5954;BME280;3002;42.642;24.812;2023-05-07T10:36:56;96678.97;;;30.46;34.64
5954;BME280;3002;42.642;24.812;2023-05-07T10:39:22;96663.41;;;27.12;38.43
5954;BME280;3002;42.642;24.812;2023-05-07T10:41:48;96669.34;;;28.04;37.94
5954;BME280;3002;42.642;24.812;2023-05-07T10:44:28;96677.53;;;30.72;34.04
5954;BME280;3002;42.642;24.812;2023-05-07T10:47:07;96666.84;;;31.32;34.19
5954;BME280;3002;42.642;24.812;2023-05-07T10:49:38;96671.16;;;32.30;32.51
5954;BME280;3002;42.642;24.812;2023-05-07T10:52:23;96660.31;;;33.35;30.63
5954;BME280;3002;42.642;24.812;2023-05-07T10:57:46;96658.31;;;28.07;37.82
5954;BME280;3002;42.642;24.812;2023-05-07T11:05:29;96651.50;;;26.03;41.59
5954;BME280;3002;42.642;24.812;2023-05-07T11:08:00;96655.94;;;29.74;35.95
5954;BME280;3002;42.642;24.812;2023-05-07T11:10:51;96660.16;;;30.64;34.99
5954;BME280;3002;42.642;24.812;2023-05-07T11:13:18;96648.75;;;30.93;34.58
5954;BME280;3002;42.642;24.812;2023-05-07T11:15:45;96640.28;;;31.07;34.37
5954;BME280;3002;42.642;24.812;2023-05-07T11:18:13;96649.69;;;30.49;34.78
5954;BME280;3002;42.642;24.812;2023-05-07T11:20:56;96612.06;;;28.61;36.75
5954;BME280;3002;42.642;24.812;2023-05-07T11:28:32;96633.13;;;27.12;39.79
5954;BME280;3002;42.642;24.812;2023-05-07T11:31:02;96644.38;;;26.72;40.46
5954;BME280;3002;42.642;24.812;2023-05-07T11:33:28;96638.06;;;28.67;37.57
5954;BME280;3002;42.642;24.812;2023-05-07T11:35:54;96628.22;;;30.90;34.26
5954;BME280;3002;42.642;24.812;2023-05-07T11:38:20;96643.72;;;30.16;34.92
5954;BME280;3002;42.642;24.812;2023-05-07T11:41:12;96638.28;;;27.78;37.30
5954;BME280;3002;42.642;24.812;2023-05-07T11:43:38;96608.41;;;28.82;36.04
5954;BME280;3002;42.642;24.812;2023-05-07T11:46:09;96633.88;;;28.20;37.05
5954;BME280;3002;42.642;24.812;2023-05-07T11:48:35;96627.16;;;27.03;39.69
5954;BME280;3002;42.642;24.812;2023-05-07T11:51:02;96619.13;;;26.45;40.19
5954;BME280;3002;42.642;24.812;2023-05-07T11:53:36;96619.75;;;27.29;39.54
5954;BME280;3002;42.642;24.812;2023-05-07T11:56:09;96630.97;;;29.36;36.50
5954;BME280;3002;42.642;24.812;2023-05-07T11:58:35;96630.53;;;29.90;35.28
5954;BME280;3002;42.642;24.812;2023-05-07T12:01:01;96636.75;;;29.56;35.67
5954;BME280;3002;42.642;24.812;2023-05-07T12:03:27;96618.22;;;29.53;35.30
5954;BME280;3002;42.642;24.812;2023-05-07T12:05:52;96617.25;;;29.74;35.26
5954;BME280;3002;42.642;24.812;2023-05-07T12:08:19;96625.22;;;28.14;36.79
5954;BME280;3002;42.642;24.812;2023-05-07T12:10:46;96625.38;;;28.77;36.52
5954;BME280;3002;42.642;24.812;2023-05-07T12:13:21;96623.41;;;28.77;36.76
5954;BME280;3002;42.642;24.812;2023-05-07T12:15:51;96619.19;;;28.55;36.44
5954;BME280;3002;42.642;24.812;2023-05-07T12:18:17;96625.69;;;26.22;40.75
5954;BME280;3002;42.642;24.812;2023-05-07T12:20:43;96628.00;;;26.17;41.29
5954;BME280;3002;42.642;24.812;2023-05-07T12:23:10;96611.09;;;27.27;39.71
5954;BME280;3002;42.642;24.812;2023-05-07T12:25:37;96615.53;;;25.68;42.17
5954;BME280;3002;42.642;24.812;2023-05-07T12:28:04;96621.16;;;25.89;42.47
5954;BME280;3002;42.642;24.812;2023-05-07T12:30:37;96601.28;;;26.13;41.78
5954;BME280;3002;42.642;24.812;2023-05-07T12:33:03;96620.88;;;26.08;41.28
5954;BME280;3002;42.642;24.812;2023-05-07T12:35:36;96609.00;;;24.98;43.59
5954;BME280;3002;42.642;24.812;2023-05-07T12:38:08;96621.53;;;26.57;40.72
5954;BME280;3002;42.642;24.812;2023-05-07T12:40:44;96608.72;;;27.29;39.20
5954;BME280;3002;42.642;24.812;2023-05-07T12:43:26;96613.84;;;27.59;38.72
5954;BME280;3002;42.642;24.812;2023-05-07T12:45:57;96606.75;;;27.90;38.46
5954;BME280;3002;42.642;24.812;2023-05-07T12:48:23;96601.28;;;27.72;38.52
5954;BME280;3002;42.642;24.812;2023-05-07T12:50:56;96595.22;;;28.38;37.61
5954;BME280;3002;42.642;24.812;2023-05-07T12:53:24;96607.19;;;27.78;37.71
5954;BME280;3002;42.642;24.812;2023-05-07T12:55:57;96603.97;;;28.04;37.37
5954;BME280;3002;42.642;24.812;2023-05-07T12:58:28;96581.19;;;27.46;38.04
5954;BME280;3002;42.642;24.812;2023-05-07T13:00:55;96605.22;;;27.35;38.63
5954;BME280;3002;42.642;24.812;2023-05-07T13:03:27;96600.09;;;27.41;39.59
5954;BME280;3002;42.642;24.812;2023-05-07T13:05:55;96605.53;;;28.05;38.29
5954;BME280;3002;42.642;24.812;2023-05-07T13:08:32;96599.16;;;28.30;37.98
5954;BME280;3002;42.642;24.812;2023-05-07T13:10:59;96600.88;;;27.70;38.76
5954;BME280;3002;42.642;24.812;2023-05-07T13:13:25;96572.88;;;27.04;40.21
5954;BME280;3002;42.642;24.812;2023-05-07T13:15:51;96592.13;;;28.11;38.20
5954;BME280;3002;42.642;24.812;2023-05-07T13:18:17;96596.88;;;28.03;39.22
5954;BME280;3002;42.642;24.812;2023-05-07T13:20:43;96596.94;;;27.35;40.44
5954;BME280;3002;42.642;24.812;2023-05-07T13:23:08;96611.38;;;26.75;40.95
5954;BME280;3002;42.642;24.812;2023-05-07T13:25:34;96586.31;;;27.34;40.11
5954;BME280;3002;42.642;24.812;2023-05-07T13:28:00;96576.72;;;26.46;40.41